Time;durP1;ratioP1;P1;durP2;ratioP2;P2;SDS_P1;SDS_P2;PMS_P1;PMS_P2;Temp;Humidity;BMP_temperature;BMP_pressure;BME280_temperature;BME280_humidity;BME280_pressure;Samples;Min_cycle;Max_cycle;Signal;HPM_P1;HPM_P2
2023/11/20 00:02:17;;;;;;;2.25;2.15;;;7.30;99.90;;;;;;5084291;28;20181;-76
2023/11/20 00:04:42;;;;;;;0.30;0.20;;;7.30;99.90;;;;;;5084900;28;20669;-76
2023/11/20 00:07:08;;;;;;;0.40;0.40;;;7.40;99.90;;;;;;5085783;28;20401;-76
2023/11/20 00:09:34;;;;;;;0.30;0.20;;;7.40;99.90;;;;;;5085625;28;20573;-76
2023/11/20 00:12:00;;;;;;;0.30;0.20;;;7.40;99.90;;;;;;5084319;28;20752;-76
2023/11/20 00:14:26;;;;;;;0.30;0.20;;;7.40;99.90;;;;;;5084280;28;20529;-76
2023/11/20 00:16:52;;;;;;;0.30;0.20;;;7.40;99.90;;;;;;5084267;28;20260;-75
2023/11/20 00:19:18;;;;;;;0.50;0.50;;;7.50;99.90;;;;;;5084359;28;20230;-76
2023/11/20 00:21:45;;;;;;;0.30;0.20;;;7.50;99.90;;;;;;5085493;28;20187;-76
2023/11/20 00:24:11;;;;;;;0.30;0.20;;;7.50;99.90;;;;;;5084321;28;20207;-75
2023/11/20 00:26:37;;;;;;;0.40;0.20;;;7.50;99.90;;;;;;5083985;28;20254;-76
2023/11/20 00:29:04;;;;;;;0.30;0.20;;;7.50;99.90;;;;;;5083926;28;20227;-75
2023/11/20 00:31:30;;;;;;;2.15;1.77;;;7.50;99.90;;;;;;5085598;28;20172;-76
2023/11/20 00:33:56;;;;;;;0.30;0.20;;;7.50;99.90;;;;;;5083119;28;20713;-77
2023/11/20 00:36:22;;;;;;;0.30;0.20;;;7.50;99.90;;;;;;5085334;28;20172;-77
2023/11/20 00:38:48;;;;;;;0.30;0.20;;;7.50;99.90;;;;;;5083914;28;20196;-75
2023/11/20 00:41:14;;;;;;;0.30;0.20;;;7.40;99.90;;;;;;5083236;28;20399;-77
2023/11/20 00:43:40;;;;;;;0.30;0.20;;;7.40;99.90;;;;;;5084938;28;20566;-77
2023/11/20 00:46:09;;;;;;;0.30;0.20;;;7.40;99.90;;;;;;5085312;28;20786;-76
2023/11/20 00:48:35;;;;;;;0.30;0.20;;;7.40;99.90;;;;;;5085181;28;20195;-75
2023/11/20 00:51:00;;;;;;;0.30;0.20;;;7.40;99.90;;;;;;5083559;28;20184;-75
2023/11/20 00:53:26;;;;;;;0.30;0.20;;;7.40;99.90;;;;;;5085510;28;20188;-75
2023/11/20 00:55:52;;;;;;;0.30;0.20;;;7.40;99.90;;;;;;5083781;28;20190;-76
2023/11/20 00:58:18;;;;;;;0.30;0.20;;;7.40;99.90;;;;;;5083513;28;20437;-76
2023/11/20 01:00:43;;;;;;;0.30;0.20;;;7.40;99.90;;;;;;5084945;28;20555;-75
2023/11/20 01:03:09;;;;;;;0.30;0.20;;;7.40;99.90;;;;;;5083868;28;20451;-76
2023/11/20 01:05:35;;;;;;;1.87;1.73;;;7.40;99.90;;;;;;5085274;28;20184;-76
2023/11/20 01:08:00;;;;;;;0.30;0.20;;;7.40;99.90;;;;;;5084681;28;20649;-77
2023/11/20 01:10:26;;;;;;;0.40;0.20;;;7.30;99.90;;;;;;5083213;28;20628;-76
2023/11/20 01:12:52;;;;;;;0.30;0.20;;;7.30;99.90;;;;;;5083599;28;20184;-75
2023/11/20 01:15:17;;;;;;;0.30;0.20;;;7.30;99.90;;;;;;5083491;28;20230;-75
2023/11/20 01:17:43;;;;;;;0.30;0.20;;;7.30;99.90;;;;;;5083645;28;20192;-76
2023/11/20 01:20:12;;;;;;;0.33;0.33;;;7.30;99.90;;;;;;5085062;28;20659;-76
2023/11/20 01:22:38;;;;;;;0.30;0.20;;;7.40;99.90;;;;;;5083045;28;20436;-76
2023/11/20 01:25:04;;;;;;;0.30;0.20;;;7.30;99.90;;;;;;5084847;28;20180;-76
2023/11/20 01:27:29;;;;;;;0.30;0.20;;;7.30;99.90;;;;;;5082988;28;20417;-76
2023/11/20 01:29:55;;;;;;;0.30;0.20;;;7.20;99.90;;;;;;5083534;28;20701;-76
2023/11/20 01:32:21;;;;;;;0.30;0.20;;;7.20;99.90;;;;;;5084517;28;20179;-76
2023/11/20 01:34:46;;;;;;;0.30;0.20;;;7.10;99.90;;;;;;5084926;28;20206;-76
2023/11/20 01:37:12;;;;;;;0.30;0.20;;;7.10;99.90;;;;;;5083916;28;20255;-76
2023/11/20 01:39:38;;;;;;;0.30;0.20;;;7.00;99.90;;;;;;5084271;28;20200;-76
2023/11/20 01:42:04;;;;;;;0.30;0.20;;;7.00;99.90;;;;;;5084522;28;20181;-76
2023/11/20 01:44:30;;;;;;;0.30;0.20;;;7.10;99.90;;;;;;5083360;28;20204;-75
2023/11/20 01:46:57;;;;;;;0.30;0.20;;;7.20;99.90;;;;;;5083210;28;20238;-75
2023/11/20 01:49:24;;;;;;;0.30;0.20;;;7.20;99.90;;;;;;5084202;28;20765;-77
2023/11/20 01:51:49;;;;;;;0.30;0.20;;;7.20;99.90;;;;;;5084465;28;20187;-77
2023/11/20 01:54:16;;;;;;;0.30;0.20;;;7.30;99.90;;;;;;5085901;28;20196;-76
2023/11/20 01:56:43;;;;;;;0.30;0.20;;;7.30;99.90;;;;;;5086999;28;20392;-75
2023/11/20 01:59:11;;;;;;;0.30;0.20;;;7.40;99.90;;;;;;5088393;28;20196;-76
2023/11/20 02:01:36;;;;;;;0.30;0.20;;;7.40;99.90;;;;;;5088104;28;20176;-76
2023/11/20 02:04:04;;;;;;;0.30;0.20;;;7.50;99.90;;;;;;5088364;28;20561;-75
2023/11/20 02:06:30;;;;;;;0.30;0.20;;;7.50;99.90;;;;;;5087813;28;20172;-75
2023/11/20 02:08:56;;;;;;;0.30;0.20;;;7.50;99.90;;;;;;5088178;28;20317;-76
2023/11/20 02:11:26;;;;;;;0.30;0.20;;;7.50;99.90;;;;;;5086504;28;20203;-76
2023/11/20 02:13:53;;;;;;;0.30;0.20;;;7.50;99.90;;;;;;5086916;28;20193;-75
2023/11/20 02:16:19;;;;;;;0.30;0.20;;;7.50;99.90;;;;;;5087506;28;20224;-76
2023/11/20 02:18:45;;;;;;;0.30;0.20;;;7.50;99.90;;;;;;5088207;28;20202;-76
2023/11/20 02:21:10;;;;;;;0.30;0.20;;;7.50;99.90;;;;;;5087817;28;20343;-76
2023/11/20 02:23:36;;;;;;;0.97;0.97;;;7.50;99.90;;;;;;5087803;28;20446;-76
2023/11/20 02:26:04;;;;;;;0.37;0.37;;;7.50;99.90;;;;;;5087904;28;20255;-75
2023/11/20 02:28:38;;;;;;;0.30;0.20;;;7.60;99.90;;;;;;5087899;28;20668;-76
2023/11/20 02:31:04;;;;;;;0.50;0.50;;;7.60;99.90;;;;;;5088047;28;20518;-75
2023/11/20 02:33:38;;;;;;;0.30;0.20;;;7.60;99.90;;;;;;5086567;28;20204;-75
2023/11/20 02:36:04;;;;;;;0.30;0.20;;;7.60;99.90;;;;;;5085694;28;20184;-76
2023/11/20 02:38:33;;;;;;;0.30;0.20;;;7.70;99.90;;;;;;5087337;28;20214;-75
2023/11/20 02:40:59;;;;;;;0.30;0.20;;;7.60;99.90;;;;;;5087511;28;20179;-76
2023/11/20 02:43:26;;;;;;;0.30;0.20;;;7.60;99.90;;;;;;5087754;28;20585;-77
2023/11/20 02:45:54;;;;;;;0.30;0.20;;;7.70;99.90;;;;;;5086002;28;20582;-76
2023/11/20 02:48:22;;;;;;;0.38;0.35;;;7.70;99.90;;;;;;5086170;28;20204;-76
2023/11/20 02:50:48;;;;;;;0.30;0.20;;;7.60;99.90;;;;;;5086799;28;20665;-76
2023/11/20 02:53:13;;;;;;;0.30;0.20;;;7.60;99.90;;;;;;5087420;28;20200;-76
2023/11/20 02:55:39;;;;;;;0.30;0.20;;;7.60;99.90;;;;;;5087288;28;20458;-77
2023/11/20 02:58:05;;;;;;;0.30;0.20;;;7.50;99.90;;;;;;5087284;28;20189;-77
2023/11/20 03:00:31;;;;;;;0.40;0.40;;;7.40;99.90;;;;;;5086861;28;20633;-75
2023/11/20 03:02:57;;;;;;;0.30;0.20;;;7.40;99.90;;;;;;5087139;28;20689;-76
2023/11/20 03:05:23;;;;;;;0.30;0.30;;;7.30;99.90;;;;;;5086808;28;20185;-75
2023/11/20 03:07:48;;;;;;;0.30;0.20;;;7.30;99.90;;;;;;5087100;28;20585;-76
2023/11/20 03:10:15;;;;;;;0.30;0.20;;;7.30;99.90;;;;;;5086864;28;20470;-76
2023/11/20 03:12:41;;;;;;;0.30;0.20;;;7.40;99.90;;;;;;5086564;28;20237;-75
2023/11/20 03:15:07;;;;;;;0.30;0.30;;;7.40;99.90;;;;;;5085579;28;20342;-75
2023/11/20 03:17:33;;;;;;;0.30;0.20;;;7.40;99.90;;;;;;5086388;28;20191;-76
2023/11/20 03:19:58;;;;;;;0.30;0.30;;;7.40;99.90;;;;;;5086713;28;20557;-75
2023/11/20 03:22:24;;;;;;;0.30;0.20;;;7.40;99.90;;;;;;5084945;28;20177;-76
2023/11/20 03:24:52;;;;;;;0.30;0.20;;;7.30;99.90;;;;;;5085374;28;20614;-75
2023/11/20 03:27:18;;;;;;;0.30;0.20;;;7.20;99.90;;;;;;5084774;28;20603;-76
2023/11/20 03:29:44;;;;;;;0.30;0.20;;;7.20;99.90;;;;;;5086917;28;20416;-76
2023/11/20 03:32:09;;;;;;;0.30;0.20;;;7.10;99.90;;;;;;5086706;28;20540;-76
2023/11/20 03:34:36;;;;;;;9.63;3.50;;;7.20;99.90;;;;;;5086489;28;20204;-76
2023/11/20 03:37:01;;;;;;;0.30;0.20;;;7.20;99.90;;;;;;5085814;28;20248;-75
2023/11/20 03:39:28;;;;;;;0.30;0.20;;;7.20;99.90;;;;;;5085938;28;20664;-75
2023/11/20 03:41:53;;;;;;;0.30;0.20;;;7.20;99.90;;;;;;5086380;28;20172;-75
2023/11/20 03:44:19;;;;;;;0.30;0.20;;;7.20;99.90;;;;;;5086694;28;20337;-75
2023/11/20 03:46:45;;;;;;;0.30;0.20;;;7.20;99.90;;;;;;5084519;28;20683;-75
2023/11/20 03:49:10;;;;;;;0.30;0.20;;;7.20;99.90;;;;;;5085903;28;20254;-75
2023/11/20 03:51:36;;;;;;;0.30;0.20;;;7.20;99.90;;;;;;5085818;28;20172;-76
2023/11/20 03:54:02;;;;;;;0.30;0.20;;;7.30;99.90;;;;;;5086012;28;20204;-76
2023/11/20 03:56:27;;;;;;;13.30;12.47;;;7.30;99.90;;;;;;5084556;28;20173;-75
2023/11/20 03:58:54;;;;;;;0.30;0.20;;;7.40;99.90;;;;;;5084678;28;20286;-75
2023/11/20 04:01:20;;;;;;;0.30;0.20;;;7.40;99.90;;;;;;5084909;28;20187;-75
2023/11/20 04:03:46;;;;;;;0.30;0.20;;;7.40;99.90;;;;;;5086256;28;20192;-76
2023/11/20 04:06:11;;;;;;;0.30;0.20;;;7.40;99.90;;;;;;5084725;28;20415;-76
2023/11/20 04:08:37;;;;;;;0.30;0.20;;;7.50;99.90;;;;;;5085857;28;20193;-76
2023/11/20 04:11:04;;;;;;;0.30;0.20;;;7.50;99.90;;;;;;5085876;28;20208;-75
2023/11/20 04:13:30;;;;;;;0.30;0.20;;;7.50;99.90;;;;;;5085813;28;20666;-75
2023/11/20 04:15:56;;;;;;;0.40;0.40;;;7.60;99.90;;;;;;5085640;28;20255;-76
2023/11/20 04:18:22;;;;;;;0.30;0.20;;;7.60;99.90;;;;;;5085404;28;20376;-76
2023/11/20 04:20:47;;;;;;;0.30;0.20;;;7.60;99.90;;;;;;5085313;28;20469;-76
2023/11/20 04:23:15;;;;;;;0.30;0.30;;;7.60;99.90;;;;;;5085911;28;20537;-74
2023/11/20 04:25:41;;;;;;;0.30;0.20;;;7.60;99.90;;;;;;5084983;28;20165;-75
2023/11/20 04:28:06;;;;;;;1.20;1.20;;;7.70;99.90;;;;;;5085507;28;20310;-74
2023/11/20 04:30:32;;;;;;;0.30;0.20;;;7.80;99.90;;;;;;5085369;28;20291;-75
2023/11/20 04:32:58;;;;;;;0.30;0.20;;;7.80;99.90;;;;;;5084217;28;20192;-76
2023/11/20 04:35:23;;;;;;;0.30;0.20;;;7.90;99.90;;;;;;5083972;28;20410;-76
2023/11/20 04:37:49;;;;;;;0.30;0.20;;;7.90;99.90;;;;;;5083244;28;20363;-75
2023/11/20 04:40:15;;;;;;;0.30;0.20;;;8.00;99.90;;;;;;5083693;28;20229;-76
2023/11/20 04:42:40;;;;;;;0.30;0.20;;;8.00;99.90;;;;;;5085370;28;20172;-77
2023/11/20 04:45:08;;;;;;;0.30;0.20;;;8.00;99.90;;;;;;5085405;28;20442;-75
2023/11/20 04:47:33;;;;;;;0.30;0.20;;;7.90;99.90;;;;;;5083665;28;20274;-76
2023/11/20 04:49:59;;;;;;;0.30;0.20;;;7.90;99.90;;;;;;5085245;28;20216;-75
2023/11/20 04:52:25;;;;;;;0.30;0.20;;;7.90;99.90;;;;;;5084648;28;20180;-75
2023/11/20 04:54:54;;;;;;;0.30;0.20;;;8.00;99.90;;;;;;5085094;28;20729;-75
2023/11/20 04:57:20;;;;;;;0.30;0.20;;;8.00;99.90;;;;;;5083565;28;20195;-76
2023/11/20 04:59:46;;;;;;;0.30;0.20;;;8.00;99.90;;;;;;5085067;28;20192;-75
2023/11/20 05:02:12;;;;;;;0.30;0.20;;;8.00;99.90;;;;;;5084903;28;20181;-75
2023/11/20 05:04:37;;;;;;;3.17;2.90;;;8.10;99.90;;;;;;5083676;28;20205;-76
2023/11/20 05:07:03;;;;;;;4.00;3.70;;;8.10;99.90;;;;;;5082564;28;20179;-75
2023/11/20 05:09:28;;;;;;;0.30;0.20;;;8.20;99.90;;;;;;5083306;28;20216;-75
2023/11/20 05:11:57;;;;;;;0.30;0.20;;;8.20;99.90;;;;;;5084435;28;20399;-76
2023/11/20 05:14:23;;;;;;;0.30;0.20;;;8.20;99.90;;;;;;5084725;28;20211;-76
2023/11/20 05:16:49;;;;;;;0.30;0.20;;;8.20;99.90;;;;;;5082797;28;20236;-75
2023/11/20 05:19:15;;;;;;;0.30;0.20;;;8.20;99.90;;;;;;5083298;28;20192;-76
2023/11/20 05:21:44;;;;;;;0.40;0.37;;;8.20;99.90;;;;;;5099322;28;20274;-76
2023/11/20 05:24:10;;;;;;;0.35;0.20;;;8.20;99.90;;;;;;5097503;28;20192;-76
2023/11/20 05:26:37;;;;;;;0.30;0.20;;;8.20;99.90;;;;;;5092198;28;21246;-75
2023/11/20 05:29:05;;;;;;;0.30;0.20;;;8.20;99.90;;;;;;5127081;27;20814;-75
2023/11/20 05:31:33;;;;;;;0.30;0.20;;;8.20;99.90;;;;;;5095945;28;20213;-75
2023/11/20 05:34:00;;;;;;;0.30;0.20;;;8.20;99.90;;;;;;5103704;28;20207;-74
2023/11/20 05:36:26;;;;;;;0.30;0.20;;;8.20;99.90;;;;;;5097427;28;20442;-76
2023/11/20 05:38:51;;;;;;;0.30;0.30;;;8.20;99.90;;;;;;5095758;28;20255;-75
2023/11/20 05:41:17;;;;;;;0.40;0.40;;;8.30;99.90;;;;;;5098527;28;20248;-75
2023/11/20 05:43:43;;;;;;;0.30;0.20;;;8.30;99.90;;;;;;5098587;28;20196;-76
2023/11/20 05:46:08;;;;;;;0.30;0.20;;;8.30;99.90;;;;;;5095217;28;20425;-76
2023/11/20 05:48:35;;;;;;;0.30;0.20;;;8.30;99.90;;;;;;5096069;28;20580;-75
2023/11/20 05:51:01;;;;;;;0.30;0.20;;;8.30;99.90;;;;;;5095203;28;21064;-76
2023/11/20 05:53:27;;;;;;;0.30;0.20;;;8.20;99.90;;;;;;5099025;28;20193;-75
2023/11/20 05:55:53;;;;;;;0.30;0.20;;;8.20;99.90;;;;;;5097811;28;20184;-76
2023/11/20 05:58:18;;;;;;;0.30;0.30;;;8.30;99.90;;;;;;5101010;28;20253;-75
2023/11/20 06:00:44;;;;;;;0.30;0.20;;;8.30;99.90;;;;;;5093718;28;20176;-76
2023/11/20 06:03:10;;;;;;;0.30;0.20;;;8.30;99.90;;;;;;5096993;28;20274;-76
2023/11/20 06:05:36;;;;;;;0.30;0.30;;;8.40;99.90;;;;;;5098507;28;20183;-75
2023/11/20 06:08:02;;;;;;;0.30;0.20;;;8.40;99.90;;;;;;5092142;28;20423;-75
2023/11/20 06:10:28;;;;;;;0.30;0.20;;;8.40;99.90;;;;;;5096918;28;20203;-75
2023/11/20 06:12:54;;;;;;;0.30;0.20;;;8.50;99.90;;;;;;5102602;28;20415;-75
2023/11/20 06:15:19;;;;;;;0.30;0.20;;;8.50;99.90;;;;;;5100548;27;20490;-75
2023/11/20 06:17:45;;;;;;;1.23;1.23;;;8.50;99.90;;;;;;5127772;27;20176;-75
2023/11/20 06:20:12;;;;;;;4.10;3.93;;;8.60;99.90;;;;;;5095906;28;20184;-77
2023/11/20 06:22:39;;;;;;;0.30;0.20;;;8.70;99.90;;;;;;5105492;28;20645;-76
2023/11/20 06:25:06;;;;;;;1.23;1.13;;;8.70;99.90;;;;;;5100628;28;20184;-76
2023/11/20 06:27:32;;;;;;;0.30;0.20;;;8.80;99.90;;;;;;5095896;28;20232;-75
2023/11/20 06:29:58;;;;;;;0.30;0.20;;;8.80;99.90;;;;;;5088383;28;20227;-75
2023/11/20 06:32:24;;;;;;;0.30;0.20;;;8.90;99.90;;;;;;5104801;28;20898;-76
2023/11/20 06:34:50;;;;;;;0.30;0.20;;;8.90;99.90;;;;;;5105616;28;20208;-75
2023/11/20 06:37:16;;;;;;;0.30;0.20;;;9.00;99.90;;;;;;5121113;27;20183;-76
2023/11/20 06:39:43;;;;;;;0.30;0.20;;;9.00;99.90;;;;;;5114426;27;20200;-75
2023/11/20 06:42:08;;;;;;;0.30;0.20;;;9.00;99.90;;;;;;5106898;28;20688;-76
2023/11/20 06:44:38;;;;;;;0.30;0.20;;;9.10;99.90;;;;;;5119220;27;20239;-75
2023/11/20 06:47:07;;;;;;;0.30;0.20;;;9.10;99.90;;;;;;5102614;28;20187;-75
2023/11/20 06:49:34;;;;;;;1.58;1.48;;;9.10;99.90;;;;;;5120851;27;20264;-76
2023/11/20 06:52:00;;;;;;;10.93;10.43;;;9.10;99.90;;;;;;5097971;28;20183;-76
2023/11/20 06:54:26;;;;;;;0.30;0.20;;;9.10;99.90;;;;;;5101089;28;20679;-75
2023/11/20 06:56:53;;;;;;;0.30;0.20;;;9.10;99.90;;;;;;5099469;28;20576;-76
2023/11/20 06:59:19;;;;;;;0.60;0.60;;;9.10;99.90;;;;;;5094770;28;20238;-77
2023/11/20 07:01:45;;;;;;;0.40;0.40;;;9.20;99.90;;;;;;5095692;28;20852;-76
2023/11/20 07:04:15;;;;;;;0.30;0.20;;;9.20;99.90;;;;;;5090089;28;20230;-76
2023/11/20 07:06:43;;;;;;;0.60;0.60;;;9.20;99.90;;;;;;5095582;28;20168;-76
2023/11/20 07:09:14;;;;;;;0.30;0.20;;;9.20;99.90;;;;;;5102163;28;20368;-76
2023/11/20 07:11:41;;;;;;;0.30;0.20;;;9.30;99.90;;;;;;5094069;28;20176;-76
2023/11/20 07:14:08;;;;;;;0.40;0.20;;;9.30;99.90;;;;;;5096733;28;20229;-76
2023/11/20 07:16:35;;;;;;;0.30;0.20;;;9.30;99.90;;;;;;5096549;27;20318;-77
2023/11/20 07:19:00;;;;;;;0.30;0.20;;;9.40;99.90;;;;;;5102481;28;20614;-77
2023/11/20 07:21:26;;;;;;;1.47;1.47;;;9.40;99.90;;;;;;5099825;28;20184;-77
2023/11/20 07:23:52;;;;;;;0.33;0.30;;;9.40;99.90;;;;;;5101665;28;20672;-76
2023/11/20 07:26:17;;;;;;;0.40;0.40;;;9.50;99.90;;;;;;5097286;28;20180;-77
2023/11/20 07:28:43;;;;;;;0.30;0.20;;;9.50;99.90;;;;;;5097375;28;20268;-77
2023/11/20 07:31:09;;;;;;;1.47;1.47;;;9.50;99.90;;;;;;5096428;28;20216;-76
2023/11/20 07:33:34;;;;;;;0.30;0.20;;;9.50;99.90;;;;;;5103518;27;20203;-78
2023/11/20 07:36:00;;;;;;;0.30;0.20;;;9.50;99.90;;;;;;5100153;28;20564;-77
2023/11/20 07:38:26;;;;;;;0.30;0.20;;;9.60;99.90;;;;;;5103003;28;20195;-77
2023/11/20 07:40:52;;;;;;;0.30;0.20;;;9.60;99.90;;;;;;5094688;28;20420;-77
2023/11/20 07:43:17;;;;;;;0.30;0.20;;;9.60;99.90;;;;;;5103520;28;20203;-76
2023/11/20 07:45:43;;;;;;;2.00;1.90;;;9.60;99.90;;;;;;5101077;28;20176;-76
2023/11/20 07:48:09;;;;;;;0.30;0.20;;;9.60;99.90;;;;;;5101724;28;20192;-77
2023/11/20 07:50:35;;;;;;;11.35;10.93;;;9.60;99.90;;;;;;5099876;28;20660;-75
2023/11/20 07:53:04;;;;;;;0.30;0.20;;;9.60;99.90;;;;;;5095461;28;20207;-77
2023/11/20 07:55:29;;;;;;;0.30;0.20;;;9.60;99.90;;;;;;5098648;28;20408;-75
2023/11/20 07:57:55;;;;;;;0.57;0.57;;;9.70;99.90;;;;;;5100263;28;20241;-75
2023/11/20 08:00:21;;;;;;;0.30;0.20;;;9.70;99.90;;;;;;5093640;28;20709;-76
2023/11/20 08:02:47;;;;;;;0.87;0.87;;;9.80;99.90;;;;;;5100305;27;20429;-76
2023/11/20 08:05:12;;;;;;;0.30;0.20;;;9.80;99.90;;;;;;5097968;28;20699;-76
2023/11/20 08:07:38;;;;;;;0.30;0.20;;;9.80;99.90;;;;;;5102954;28;20581;-75
2023/11/20 08:10:05;;;;;;;0.30;0.20;;;9.90;99.90;;;;;;5102053;28;20887;-76
2023/11/20 08:12:30;;;;;;;1.15;1.15;;;9.90;99.90;;;;;;5102637;28;20475;-77
2023/11/20 08:14:57;;;;;;;9.90;9.10;;;9.90;99.90;;;;;;5102050;28;20408;-75
2023/11/20 08:17:23;;;;;;;0.30;0.20;;;9.90;99.90;;;;;;5103826;28;20280;-75
2023/11/20 08:19:49;;;;;;;0.30;0.20;;;10.00;99.90;;;;;;5105374;28;20215;-77
2023/11/20 08:22:15;;;;;;;0.30;0.20;;;10.00;99.90;;;;;;5096335;28;20233;-77
2023/11/20 08:24:43;;;;;;;0.30;0.30;;;10.10;99.90;;;;;;5094770;27;20486;-76
2023/11/20 08:27:09;;;;;;;0.30;0.20;;;10.10;99.90;;;;;;5097466;28;20279;-79
2023/11/20 08:29:38;;;;;;;0.30;0.20;;;10.10;99.90;;;;;;5100002;28;20750;-75
2023/11/20 08:32:05;;;;;;;0.30;0.30;;;10.10;99.90;;;;;;5100291;28;20183;-75
2023/11/20 08:34:31;;;;;;;0.40;0.40;;;10.20;99.90;;;;;;5103409;27;20534;-75
2023/11/20 08:36:58;;;;;;;0.60;0.60;;;10.20;99.90;;;;;;5093643;28;20339;-76
2023/11/20 08:39:31;;;;;;;0.30;0.20;;;10.20;99.90;;;;;;5087164;28;20430;-75
2023/11/20 08:41:59;;;;;;;0.30;0.20;;;10.20;99.90;;;;;;5098946;28;20663;-75
2023/11/20 08:44:25;;;;;;;0.30;0.30;;;10.30;99.90;;;;;;5100372;28;20210;-75
2023/11/20 08:46:51;;;;;;;0.30;0.20;;;10.30;99.90;;;;;;5107078;27;20180;-75
2023/11/20 08:49:16;;;;;;;0.30;0.30;;;10.40;99.90;;;;;;5100722;28;20231;-76
2023/11/20 08:51:43;;;;;;;0.30;0.20;;;10.40;99.90;;;;;;5100612;28;20717;-76
2023/11/20 08:54:10;;;;;;;1.45;1.45;;;10.40;99.90;;;;;;5111628;27;20449;-75
2023/11/20 08:56:35;;;;;;;0.30;0.20;;;10.50;99.90;;;;;;5096301;28;20414;-75
2023/11/20 08:59:01;;;;;;;0.30;0.20;;;10.50;99.90;;;;;;5097743;28;20231;-77
2023/11/20 09:01:34;;;;;;;0.77;0.77;;;10.60;99.90;;;;;;5094727;28;20180;-75
2023/11/20 09:04:03;;;;;;;0.30;0.30;;;10.60;99.90;;;;;;5099209;28;20211;-77
2023/11/20 09:06:29;;;;;;;0.30;0.30;;;10.70;99.90;;;;;;5098419;28;20723;-75
2023/11/20 09:08:56;;;;;;;0.30;0.20;;;10.80;99.90;;;;;;5097044;28;20637;-79
2023/11/20 09:11:22;;;;;;;1.30;1.30;;;10.80;99.90;;;;;;5098007;28;20577;-75
2023/11/20 09:13:48;;;;;;;0.53;0.53;;;10.90;99.90;;;;;;5097019;28;20508;-75
2023/11/20 09:16:14;;;;;;;0.30;0.20;;;11.00;99.90;;;;;;5091835;28;20464;-77
2023/11/20 09:18:41;;;;;;;0.73;0.73;;;11.00;99.90;;;;;;5090055;28;20677;-76
2023/11/20 09:21:07;;;;;;;1.10;1.08;;;11.10;99.90;;;;;;5093261;28;20721;-76
2023/11/20 09:23:32;;;;;;;0.30;0.20;;;11.20;99.90;;;;;;5098583;28;20199;-76
2023/11/20 09:25:58;;;;;;;0.30;0.30;;;11.30;99.90;;;;;;5093864;28;20706;-76
2023/11/20 09:28:24;;;;;;;0.63;0.60;;;11.30;99.90;;;;;;5098396;28;20760;-74
2023/11/20 09:30:50;;;;;;;0.95;0.95;;;11.40;99.90;;;;;;5092935;28;20219;-76
2023/11/20 09:33:15;;;;;;;0.30;0.20;;;11.50;99.90;;;;;;5100281;28;20665;-75
2023/11/20 09:35:42;;;;;;;0.70;0.70;;;11.60;99.90;;;;;;5113147;28;20262;-76
2023/11/20 09:38:09;;;;;;;2.10;2.00;;;11.70;99.90;;;;;;5100229;28;20195;-76
2023/11/20 09:40:36;;;;;;;0.30;0.20;;;11.80;99.90;;;;;;5091778;28;20274;-76
2023/11/20 09:43:02;;;;;;;0.30;0.30;;;11.90;99.90;;;;;;5098234;28;20204;-77
2023/11/20 09:45:28;;;;;;;0.30;0.20;;;11.90;99.90;;;;;;5096871;28;20176;-78
2023/11/20 09:47:56;;;;;;;0.75;0.75;;;12.00;99.90;;;;;;5100662;28;20187;-77
2023/11/20 09:50:29;;;;;;;0.50;0.50;;;12.10;99.90;;;;;;5093437;28;20212;-76
2023/11/20 09:52:55;;;;;;;1.15;1.15;;;12.20;99.90;;;;;;5095598;28;20176;-78
2023/11/20 09:55:22;;;;;;;0.68;0.68;;;12.30;99.90;;;;;;5097007;28;20198;-78
2023/11/20 09:57:49;;;;;;;0.73;0.73;;;12.40;99.90;;;;;;5109471;28;20275;-78
2023/11/20 10:00:17;;;;;;;0.30;0.20;;;12.50;99.90;;;;;;5100783;28;20404;-77
2023/11/20 10:02:46;;;;;;;0.30;0.20;;;12.60;99.90;;;;;;5100863;28;20331;-77
2023/11/20 10:05:17;;;;;;;0.30;0.23;;;12.70;99.90;;;;;;5096090;28;20499;-77
2023/11/20 10:07:45;;;;;;;0.30;0.30;;;12.80;99.90;;;;;;5115677;27;20642;-76
2023/11/20 10:10:14;;;;;;;0.30;0.20;;;13.00;99.90;;;;;;5108314;27;20494;-77
2023/11/20 10:12:41;;;;;;;0.30;0.20;;;13.00;99.90;;;;;;5106821;27;21147;-76
2023/11/20 10:15:07;;;;;;;0.30;0.20;;;13.10;99.90;;;;;;5088707;28;20427;-77
2023/11/20 10:17:36;;;;;;;0.30;0.20;;;13.20;99.90;;;;;;5094099;28;20411;-77
2023/11/20 10:20:09;;;;;;;0.30;0.20;;;13.30;99.90;;;;;;5084410;28;20435;-75
2023/11/20 10:22:37;;;;;;;0.30;0.20;;;13.40;99.90;;;;;;5099067;28;20491;-76
2023/11/20 10:25:05;;;;;;;0.30;0.20;;;13.40;99.90;;;;;;5097126;28;20415;-76
2023/11/20 10:27:32;;;;;;;0.30;0.20;;;13.50;99.90;;;;;;5101173;28;20427;-77
2023/11/20 10:29:58;;;;;;;0.30;0.20;;;13.60;99.90;;;;;;5116228;27;20581;-78
2023/11/20 10:32:27;;;;;;;0.30;0.20;;;13.70;99.90;;;;;;5098840;28;20738;-78
2023/11/20 10:35:27;;;;;;;0.30;0.20;;;13.70;99.90;;;;;;5104969;28;20588;-77
2023/11/20 10:37:58;;;;;;;1.40;0.93;;;13.80;99.90;;;;;;5079417;28;20437;-78
2023/11/20 10:40:28;;;;;;;0.30;0.20;;;13.90;99.90;;;;;;5096657;28;20451;-77
2023/11/20 10:42:54;;;;;;;0.30;0.20;;;14.00;99.90;;;;;;5100984;28;20476;-77
2023/11/20 10:45:20;;;;;;;0.30;0.20;;;14.00;99.90;;;;;;5095368;28;20420;-78
2023/11/20 10:47:48;;;;;;;0.30;0.20;;;14.10;99.90;;;;;;5098685;28;20458;-77
2023/11/20 10:50:15;;;;;;;0.30;0.20;;;14.10;99.90;;;;;;5097487;28;20608;-77
2023/11/20 10:52:41;;;;;;;0.30;0.20;;;14.20;99.90;;;;;;5098280;28;20424;-78
2023/11/20 10:55:12;;;;;;;0.30;0.20;;;14.20;99.90;;;;;;5099967;28;20476;-77
2023/11/20 10:57:39;;;;;;;0.30;0.20;;;14.30;99.90;;;;;;5104549;28;20626;-78
2023/11/20 11:00:10;;;;;;;0.30;0.30;;;14.30;99.90;;;;;;5123468;27;20412;-76
2023/11/20 11:02:45;;;;;;;0.30;0.20;;;14.40;99.90;;;;;;5094928;28;20504;-77
2023/11/20 11:05:12;;;;;;;0.30;0.20;;;14.40;99.90;;;;;;5096704;28;20428;-77
2023/11/20 11:07:42;;;;;;;0.30;0.20;;;14.40;99.90;;;;;;5103459;28;20473;-75
2023/11/20 11:10:14;;;;;;;6.13;2.37;;;14.50;99.90;;;;;;5099278;27;20563;-76
2023/11/20 11:12:44;;;;;;;0.50;0.43;;;14.50;99.90;;;;;;5084772;28;20439;-76
2023/11/20 11:15:15;;;;;;;0.40;0.40;;;14.60;99.90;;;;;;5114958;27;20439;-75
2023/11/20 11:17:56;;;;;;;0.30;0.20;;;14.60;99.90;;;;;;5093263;28;20508;-76
2023/11/20 11:20:52;;;;;;;2.40;1.70;;;14.70;99.90;;;;;;5091935;28;20482;-77
2023/11/20 11:23:28;;;;;;;0.37;0.20;;;14.70;99.90;;;;;;5092759;28;20456;-77
2023/11/20 11:26:10;;;;;;;0.30;0.20;;;14.80;99.90;;;;;;5089640;28;21103;-75
2023/11/20 11:28:39;;;;;;;0.30;0.20;;;14.80;99.90;;;;;;5091401;28;20588;-77
2023/11/20 11:31:05;;;;;;;0.30;0.20;;;14.80;99.90;;;;;;5095368;28;20460;-77
2023/11/20 11:33:49;;;;;;;2.30;1.90;;;14.90;99.90;;;;;;5121613;27;20469;-77
2023/11/20 11:36:45;;;;;;;0.97;0.97;;;14.90;99.90;;;;;;5093182;28;20432;-75
2023/11/20 11:39:27;;;;;;;0.30;0.20;;;14.90;99.90;;;;;;5080620;28;20445;-76
2023/11/20 11:42:07;;;;;;;1.13;1.13;;;14.90;99.90;;;;;;5089001;28;20420;-77
2023/11/20 11:44:34;;;;;;;0.30;0.20;;;14.90;99.90;;;;;;5122288;27;20975;-77
2023/11/20 11:47:23;;;;;;;0.30;0.20;;;15.00;99.90;;;;;;5095775;28;20830;-78
2023/11/20 11:49:49;;;;;;;0.30;0.20;;;15.00;99.90;;;;;;5093798;28;20486;-77
2023/11/20 11:52:38;;;;;;;1.97;1.80;;;15.00;99.90;;;;;;5092640;28;20996;-75
2023/11/20 11:55:15;;;;;;;1.50;1.40;;;15.00;99.90;;;;;;5089311;28;20428;-76
2023/11/20 11:57:41;;;;;;;0.30;0.20;;;15.00;99.90;;;;;;5090116;28;20810;-76
2023/11/20 12:00:11;;;;;;;3.13;2.93;;;14.90;99.90;;;;;;5083366;28;20429;-75
2023/11/20 12:02:59;;;;;;;0.30;0.20;;;14.90;99.90;;;;;;5090564;28;20433;-75
2023/11/20 12:05:25;;;;;;;0.30;0.20;;;14.90;99.90;;;;;;5089783;28;20431;-76
2023/11/20 12:07:58;;;;;;;0.63;0.60;;;14.90;99.90;;;;;;5091176;28;20419;-77
2023/11/20 12:10:45;;;;;;;0.30;0.20;;;14.90;99.90;;;;;;5091475;28;20994;-77
2023/11/20 12:13:15;;;;;;;0.30;0.20;;;14.90;99.90;;;;;;5092380;28;20472;-77
2023/11/20 12:15:42;;;;;;;0.30;0.20;;;14.80;99.90;;;;;;5092749;28;20556;-76
2023/11/20 12:18:10;;;;;;;0.30;0.20;;;14.80;99.90;;;;;;5095030;28;20440;-77
2023/11/20 12:20:44;;;;;;;0.63;0.63;;;14.80;99.90;;;;;;5091655;28;20432;-77
2023/11/20 12:23:31;;;;;;;0.30;0.20;;;14.90;99.90;;;;;;5090654;28;20581;-78
2023/11/20 12:25:58;;;;;;;0.30;0.20;;;14.90;99.90;;;;;;5094493;28;20440;-78
2023/11/20 12:28:25;;;;;;;0.30;0.30;;;14.90;99.90;;;;;;5118448;27;20593;-77
2023/11/20 12:30:54;;;;;;;0.30;0.20;;;14.90;99.90;;;;;;5085822;28;21030;-77
2023/11/20 12:33:22;;;;;;;2.00;1.13;;;14.90;99.90;;;;;;5092042;28;20773;-76
2023/11/20 12:35:53;;;;;;;0.40;0.40;;;15.00;99.90;;;;;;5092544;28;20884;-76
2023/11/20 12:38:19;;;;;;;0.30;0.30;;;15.00;99.90;;;;;;5091191;28;20410;-78
2023/11/20 12:40:52;;;;;;;0.30;0.20;;;15.00;99.90;;;;;;5084811;28;20780;-76
2023/11/20 12:43:19;;;;;;;0.30;0.20;;;15.10;99.90;;;;;;5100698;27;20976;-76
2023/11/20 12:45:45;;;;;;;0.90;0.90;;;15.00;99.90;;;;;;5094429;28;20925;-76
2023/11/20 12:48:11;;;;;;;0.30;0.20;;;15.10;99.90;;;;;;5099146;28;20991;-76
2023/11/20 12:50:37;;;;;;;0.40;0.40;;;15.10;99.90;;;;;;5100352;27;20482;-76
2023/11/20 12:53:04;;;;;;;1.03;1.03;;;15.10;99.90;;;;;;5102512;28;20344;-77
2023/11/20 12:55:30;;;;;;;0.30;0.20;;;15.10;99.90;;;;;;5091884;28;20175;-76